WetterOnline ( https://www.wetteronline.ch )

Wetter aktuell Storlien

Aktuelles Wetter: Storlien-Visjovalen A (585m)

6-stündlich | Neueste Meldungen
Ortszeit Temperatur Wetter
Mo, 29.11. 7:00 -18.9° C wolkenlos
Mo, 29.11. 1:00 -16.0° C wolkenlos
So, 28.11. 19:00 -24.0° C wolkenlos
So, 28.11. 13:00 -19.5° C bedeckt
So, 28.11. 7:00 -19.9° C wolkig
So, 28.11. 1:00 -17.6° C leichte Schneeschauer
Sa, 27.11. 19:00 -18.6° C leichter Schneefall
Sa, 27.11. 13:00 -17.7° C wolkig
Ortszeit Temperatur Wetter
Mo, 29.11. 12:00 -18.6° C bewölkt
Mo, 29.11. 11:00 -20.2° C wolkenlos
Mo, 29.11. 10:00 -21.0° C wolkenlos
Mo, 29.11. 9:00 -20.4° C wolkenlos
Mo, 29.11. 8:00 -19.4° C fast wolkenlos
Mo, 29.11. 7:00 -18.9° C wolkenlos
Ortszeit Relative Feuchte Sichtweite
Mo, 29.11. 7:00 81% 50 km
Mo, 29.11. 1:00 82% 45 km
So, 28.11. 19:00 77% 19 km
So, 28.11. 13:00 81% 27 km
So, 28.11. 7:00 82% 18 km
So, 28.11. 1:00 83% 18 km
Sa, 27.11. 19:00 85% 5.0 km
Sa, 27.11. 13:00 85% 50 km
Ortszeit Relative Feuchte Sichtweite
Mo, 29.11. 12:00 80% 35 km
Mo, 29.11. 11:00 80% 50 km
Mo, 29.11. 10:00 82% 50 km
Mo, 29.11. 9:00 79% 50 km
Mo, 29.11. 8:00 82% 50 km
Mo, 29.11. 7:00 81% 50 km
Ortszeit Niederschlagsmenge Niederschlagsart
Mo, 29.11. 7:00 0.0 l/m2 in 12 Std. -
Mo, 29.11. 1:00 keine Meldung -
So, 28.11. 19:00 0.0 l/m2 in 1 Std. -
So, 28.11. 13:00 keine Meldung -
So, 28.11. 7:00 0.2 l/m2 in 12 Std. Schneeschauer
So, 28.11. 1:00 keine Meldung -
Sa, 27.11. 19:00 0.1 l/m2 in 12 Std. Schnee
Sa, 27.11. 13:00 keine Meldung -
Ortszeit Niederschlagsmenge Niederschlagsart
Mo, 29.11. 12:00 0.0 l/m2 in 1 Std. -
Mo, 29.11. 11:00 0.0 l/m2 in 1 Std. -
Mo, 29.11. 10:00 0.0 l/m2 in 1 Std. -
Mo, 29.11. 9:00 0.0 l/m2 in 1 Std. -
Mo, 29.11. 8:00 0.0 l/m2 in 1 Std. -
Mo, 29.11. 7:00 0.0 l/m2 in 1 Std. -
Ortszeit Stärke Spitze Richtung
km/h Bft. km/h Grad Sektor
Mo, 29.11. 7:00 11 2 14 110° O
Mo, 29.11. 1:00 4 1 - 240° SW
So, 28.11. 19:00 4 1 11 280° W
So, 28.11. 13:00 0 0 - - -
So, 28.11. 7:00 2 1 - 240° SW
So, 28.11. 1:00 2 1 - 290° W
Sa, 27.11. 19:00 2 1 - 290° W
Sa, 27.11. 13:00 2 1 - 170° S
Ortszeit Stärke Spitze Richtung
km/h Bft. km/h Grad Sektor
Mo, 29.11. 12:00 2 1 9 320° NW
Mo, 29.11. 11:00 4 1 11 110° O
Mo, 29.11. 10:00 4 1 14 320° NW
Mo, 29.11. 9:00 4 1 14 120° SO
Mo, 29.11. 8:00 9 2 15 110° O
Mo, 29.11. 7:00 11 2 14 110° O
Ortszeit Untergrenze Bedeckung Gattung
total tief tief mittel hoch
Mo, 29.11. 7:00 - 0/8 0/8 - - -
Mo, 29.11. 1:00 - 0/8 0/8 - - -
So, 28.11. 19:00 - 0/8 0/8 - - -
So, 28.11. 13:00 30 m 8/8 8/8 - - -
So, 28.11. 7:00 5100 m 5/8 5/8 - - -
So, 28.11. 1:00 1290 m 7/8 4/8 - - -
Sa, 27.11. 19:00 90 m 8/8 8/8 - - -
Sa, 27.11. 13:00 5400 m 6/8 6/8 - - -
Ortszeit Bedeckungsgrad in Achtel und Wolkenuntergrenze
Mo, 29.11. 12:00 7(5400m)
Mo, 29.11. 11:00 keine Wolken
Mo, 29.11. 10:00 keine Wolken
Mo, 29.11. 9:00 keine Wolken
Mo, 29.11. 8:00 1(3600m)
Mo, 29.11. 7:00 keine Wolken
Ortszeit Luftdruck NN (hPa) Tendenz (hPa in 3 Std.)
Mo, 29.11. 7:00 1009 - 0,5
Mo, 29.11. 1:00 1009 0,0
So, 28.11. 19:00 1010 + 0,7
So, 28.11. 13:00 1009 + 0,2
So, 28.11. 7:00 1007 0,0
So, 28.11. 1:00 1007 - 0,1
Sa, 27.11. 19:00 1008 + 0,6
Sa, 27.11. 13:00 1007 + 0,2
Ortszeit Luftdruck NN (hPa) Tendenz (hPa in 3 Std.)
Mo, 29.11. 12:00 1007 - 1,7
Mo, 29.11. 11:00 1008 - 1,1
Mo, 29.11. 10:00 1009 - 0,3
Mo, 29.11. 9:00 1009 + 0,2
Mo, 29.11. 8:00 1009 - 0,1
Mo, 29.11. 7:00 1009 - 0,5
Ortszeit Schneehöhe (cm)
Mo, 29.11. 7:00 -
Mo, 29.11. 1:00 -
So, 28.11. 19:00 -
So, 28.11. 13:00 -
So, 28.11. 7:00 -
So, 28.11. 1:00 -
Sa, 27.11. 19:00 -
Sa, 27.11. 13:00 -
Ortszeit Schneehöhe (cm)
Mo, 29.11. 12:00 -
Mo, 29.11. 11:00 -
Mo, 29.11. 10:00 -
Mo, 29.11. 9:00 -
Mo, 29.11. 8:00 -
Mo, 29.11. 7:00 -
Link zu dieser Seite / Seite empfehlen

Das Wetter in ...